AIRPORT MAP

 RUNWAY INFORMATION

Runway 02 Runway length 5341 ft Runway width 98 ft
Runway elevation 9 ft Runway displaced threshold 190 ft Runway heading 19
Runway 20 Runway length 5341 ft Runway width 98 ft
Runway elevation 54 ft Runway displaced threshold 0 ft Runway heading 199

 AIRPORT FREQUENCIES

Type A/G Name SKIATHOS R Frequency 563.7 MHZ
Type APP Name SKIATHOS A Frequency 126.05 MHZ
Type TWR Name SKIATHOS T Frequency 126.05 MHZ

 AIRPORT NEAR NAVIGATION AIDS

Type NDB Name Skiathos Frequency 326 KHZ

 METAR AND TAF INFORMATION

METAR FOR LGSK
ADDS - METARS form results

(0851 UTC 25 January 2020)
Data provider http://aviationweather.gov/metar/data/
 
Forecast for: LGSK (SKIATHOS ISLAND , GR)
Text: TAF LGSK 250800Z 2509/2518 20010KT 9999 FEW020
Forecast period: 0900 to 1800 UTC 25 January 2020
Forecast type: FROM: standard forecast or significant change
Winds: from the SSW (200 degrees) at 12 MPH (10 knots; 5.1 m/s)
Visibility: 6 or more miles 10+ km)
Ceiling: at least 12,000 feet AGL
Clouds: few clouds at 2000 feet AGL
Weather: no significant weather forecast for this period